createdAt,value
2018-09-15T00:03:13.555Z,4.30
2018-09-15T00:08:16.932Z,4.27
2018-09-15T00:13:21.252Z,4.13
2018-09-15T00:18:24.857Z,4.10
2018-09-15T00:23:28.209Z,4.40
2018-09-15T00:28:31.699Z,4.37
2018-09-15T00:33:35.226Z,4.53
2018-09-15T00:38:38.555Z,4.37
2018-09-15T00:43:41.901Z,4.20
2018-09-15T00:48:47.575Z,4.57
2018-09-15T00:53:50.981Z,3.87
2018-09-15T00:58:54.348Z,4.57
2018-09-15T01:03:57.748Z,4.80
2018-09-15T01:09:01.129Z,4.10
2018-09-15T01:14:04.302Z,4.13
2018-09-15T01:19:07.897Z,4.40
2018-09-15T01:24:11.406Z,3.67
2018-09-15T01:29:14.744Z,4.37
2018-09-15T01:34:18.230Z,3.63
2018-09-15T01:39:21.746Z,3.97
2018-09-15T01:44:25.177Z,4.83
2018-09-15T01:49:28.493Z,4.67
2018-09-15T01:54:32.396Z,4.60
2018-09-15T01:59:35.776Z,4.03
2018-09-15T02:04:38.804Z,4.00
2018-09-15T02:09:42.115Z,4.47
2018-09-15T02:14:45.430Z,4.77
2018-09-15T02:19:48.713Z,4.73
2018-09-15T02:24:52.237Z,5.20
2018-09-15T02:29:55.837Z,4.57
2018-09-15T02:34:59.620Z,4.20
2018-09-15T02:40:03.242Z,4.67
2018-09-15T02:45:06.814Z,4.20
2018-09-15T02:50:10.530Z,4.20
2018-09-15T02:55:14.364Z,4.73
2018-09-15T03:00:18.002Z,3.80
2018-09-15T03:05:21.623Z,3.87
2018-09-15T03:10:25.258Z,4.57
2018-09-15T03:15:28.962Z,3.87
2018-09-15T03:20:32.626Z,3.77
2018-09-15T03:25:36.221Z,3.37
2018-09-15T03:30:39.873Z,3.73
2018-09-15T03:35:43.233Z,3.73
2018-09-15T03:40:46.664Z,3.43
2018-09-15T03:45:50.143Z,3.93
2018-09-15T03:50:53.436Z,3.60
2018-09-15T03:55:56.888Z,3.67
2018-09-15T04:01:00.245Z,3.97
2018-09-15T04:06:03.657Z,3.93
2018-09-15T04:11:07.109Z,4.83
2018-09-15T04:16:10.445Z,3.87
2018-09-15T04:21:13.741Z,4.70
2018-09-15T04:26:17.212Z,4.10
2018-09-15T04:31:20.538Z,4.13
2018-09-15T04:36:24.033Z,4.13
2018-09-15T04:41:27.387Z,3.93
2018-09-15T04:46:30.721Z,4.27
2018-09-15T04:51:34.042Z,4.77
2018-09-15T04:56:37.364Z,4.20
2018-09-15T05:01:40.839Z,4.23
2018-09-15T05:06:44.248Z,4.60
2018-09-15T05:11:47.220Z,4.40
2018-09-15T05:16:50.618Z,5.00
2018-09-15T05:21:53.941Z,3.93
2018-09-15T05:26:57.315Z,4.30
2018-09-15T05:32:00.795Z,5.00
2018-09-15T05:37:04.169Z,3.93
2018-09-15T05:42:07.812Z,4.90
2018-09-15T05:47:11.221Z,4.33
2018-09-15T05:52:14.578Z,4.50
2018-09-15T05:57:17.877Z,4.40
2018-09-15T06:02:21.565Z,4.50
2018-09-15T06:07:25.157Z,4.47
2018-09-15T06:12:28.624Z,5.00
2018-09-15T06:17:31.985Z,4.70
2018-09-15T06:22:35.454Z,5.67
2018-09-15T06:27:39.068Z,4.27
2018-09-15T06:32:42.555Z,4.63
2018-09-15T06:37:46.174Z,4.87
2018-09-15T06:42:49.922Z,4.67
2018-09-15T06:47:53.298Z,6.90
2018-09-15T06:52:56.607Z,6.07
2018-09-15T06:58:00.022Z,6.27
2018-09-15T07:03:03.456Z,5.87
2018-09-15T07:08:06.877Z,5.87
2018-09-15T07:13:10.565Z,5.90
2018-09-15T07:18:14.015Z,6.10
2018-09-15T07:23:17.397Z,6.70
2018-09-15T07:28:20.732Z,6.70
2018-09-15T07:33:24.146Z,6.50
2018-09-15T07:38:27.563Z,5.90
2018-09-15T07:43:30.902Z,5.10
2018-09-15T07:48:34.360Z,6.07
2018-09-15T07:53:37.777Z,5.27
2018-09-15T07:58:40.872Z,4.40
2018-09-15T08:03:44.499Z,4.27
2018-09-15T08:08:47.803Z,5.37
2018-09-15T08:13:51.277Z,4.27
2018-09-15T08:18:54.610Z,4.10
2018-09-15T08:23:58.081Z,3.60
2018-09-15T08:29:01.378Z,3.73
2018-09-15T08:34:04.820Z,3.30
2018-09-15T08:39:08.698Z,3.97
2018-09-15T08:44:12.097Z,3.43
2018-09-15T08:49:15.473Z,2.73
2018-09-15T08:54:18.867Z,2.80
2018-09-15T08:59:22.352Z,2.92
2018-09-15T09:04:25.821Z,2.63
2018-09-15T09:09:29.250Z,3.47
2018-09-15T09:14:32.627Z,2.97
2018-09-15T09:19:36.186Z,3.90
2018-09-15T09:24:39.783Z,3.50
2018-09-15T09:29:43.163Z,2.97
2018-09-15T09:34:46.616Z,3.07
2018-09-15T09:39:49.933Z,4.17
2018-09-15T09:44:53.392Z,3.50
2018-09-15T09:49:56.936Z,4.00
2018-09-15T09:55:00.241Z,2.80
2018-09-15T10:00:03.783Z,3.10
2018-09-15T10:05:07.201Z,2.97
2018-09-15T10:10:10.615Z,3.40
2018-09-15T10:15:14.041Z,3.07
2018-09-15T10:20:17.532Z,2.90
2018-09-15T10:25:20.959Z,3.03
2018-09-15T10:30:24.500Z,2.90
2018-09-15T10:35:28.073Z,3.30
2018-09-15T10:40:31.674Z,2.83
2018-09-15T10:45:34.915Z,2.90
2018-09-15T10:50:38.230Z,3.17
2018-09-15T10:55:41.643Z,2.57
2018-09-15T11:00:45.105Z,3.10
2018-09-15T11:05:48.653Z,2.60
2018-09-15T11:10:51.913Z,2.90
2018-09-15T11:15:55.326Z,2.20
2018-09-15T11:20:58.655Z,3.00
2018-09-15T11:26:02.298Z,1.97
2018-09-15T11:31:05.763Z,3.40
2018-09-15T11:36:09.178Z,3.43
2018-09-15T11:41:12.549Z,2.47
2018-09-15T11:46:16.112Z,2.57
2018-09-15T11:51:19.562Z,2.33
2018-09-15T11:56:23.125Z,2.43
2018-09-15T12:01:26.492Z,2.50
2018-09-15T12:06:29.928Z,2.40
2018-09-15T12:11:33.357Z,2.07
2018-09-15T12:16:36.717Z,2.37
2018-09-15T12:21:40.039Z,2.50
2018-09-15T12:26:43.443Z,3.17
2018-09-15T12:31:47.006Z,2.60
2018-09-15T12:36:50.469Z,2.47
2018-09-15T12:41:54.033Z,2.17
2018-09-15T12:46:57.439Z,2.57
2018-09-15T12:52:00.919Z,1.90
2018-09-15T12:57:04.334Z,2.20
2018-09-15T13:02:07.893Z,2.10
2018-09-15T13:07:11.465Z,2.27
2018-09-15T13:12:14.838Z,1.83
2018-09-15T13:17:18.328Z,1.90
2018-09-15T13:22:21.641Z,2.10
2018-09-15T13:27:25.166Z,2.33
2018-09-15T13:32:28.445Z,1.83
2018-09-15T13:37:31.746Z,2.50
2018-09-15T13:42:35.160Z,2.00
2018-09-15T13:47:38.641Z,2.50
2018-09-15T13:52:42.011Z,2.17
2018-09-15T13:57:45.426Z,2.20
2018-09-15T14:02:48.832Z,2.27
2018-09-15T14:07:52.378Z,3.73
2018-09-15T14:12:55.769Z,2.20
2018-09-15T14:17:59.188Z,2.67
2018-09-15T14:23:02.540Z,2.00
2018-09-15T14:28:06.244Z,2.53
2018-09-15T14:33:09.588Z,1.60
2018-09-15T14:38:12.916Z,2.43
2018-09-15T14:43:16.384Z,2.67
2018-09-15T14:48:19.993Z,5.07
2018-09-15T14:53:23.122Z,2.80
2018-09-15T14:58:26.424Z,2.30
2018-09-15T15:03:29.899Z,2.43
2018-09-15T15:08:33.269Z,2.00
2018-09-15T15:13:36.688Z,6.27
2018-09-15T15:18:40.050Z,1.93
2018-09-15T15:23:43.413Z,2.17
2018-09-15T15:28:46.834Z,1.67
2018-09-15T15:33:50.161Z,1.90
2018-09-15T15:38:53.473Z,1.70
2018-09-15T15:43:57.081Z,2.00
2018-09-15T15:49:00.681Z,2.00
2018-09-15T15:54:04.097Z,2.10
2018-09-15T15:59:07.528Z,2.20
2018-09-15T16:04:10.917Z,1.90
2018-09-15T16:09:14.871Z,1.80
2018-09-15T16:14:18.373Z,2.20
2018-09-15T16:19:21.969Z,2.10
2018-09-15T16:24:25.257Z,1.63
2018-09-15T16:29:28.628Z,2.10
2018-09-15T16:34:31.940Z,1.70
2018-09-15T16:39:35.230Z,1.73
2018-09-15T16:44:38.541Z,1.63
2018-09-15T16:49:41.959Z,1.60
2018-09-15T16:54:45.461Z,1.50
2018-09-15T16:59:48.993Z,1.70
2018-09-15T17:04:52.406Z,1.67
2018-09-15T17:09:55.775Z,2.00
2018-09-15T17:14:59.011Z,1.90
2018-09-15T17:20:02.327Z,2.00
2018-09-15T17:25:05.886Z,1.70
2018-09-15T17:30:08.981Z,1.83
2018-09-15T17:35:12.281Z,1.70
2018-09-15T17:40:15.749Z,1.50
2018-09-15T17:45:19.141Z,1.60
2018-09-15T17:50:22.450Z,1.57
2018-09-15T17:55:25.840Z,2.10
2018-09-15T18:00:29.208Z,1.80
2018-09-15T18:05:32.733Z,1.73
2018-09-15T18:10:36.060Z,1.60
2018-09-15T18:15:39.412Z,1.80
2018-09-15T18:20:42.574Z,1.70
2018-09-15T18:25:45.868Z,1.27
2018-09-15T18:30:49.280Z,1.73
2018-09-15T18:35:52.804Z,1.70
2018-09-15T18:40:56.364Z,1.93
2018-09-15T18:45:59.702Z,1.70
2018-09-15T18:51:03.154Z,1.83
2018-09-15T18:56:06.914Z,1.83
2018-09-15T19:01:10.243Z,2.00
2018-09-15T19:06:13.558Z,2.00
2018-09-15T19:11:16.982Z,2.47
2018-09-15T19:16:20.284Z,2.90
2018-09-15T19:21:23.675Z,2.27
2018-09-15T19:26:27.143Z,2.70
2018-09-15T19:31:30.577Z,2.57
2018-09-15T19:36:33.856Z,2.57
2018-09-15T19:41:37.192Z,1.80
2018-09-15T19:46:40.501Z,2.37
2018-09-15T19:51:43.837Z,2.47
2018-09-15T19:56:47.141Z,2.30
2018-09-15T20:01:50.592Z,2.07
2018-09-15T20:06:53.945Z,2.20
2018-09-15T20:11:57.286Z,1.93
2018-09-15T20:16:59.600Z,2.27
2018-09-15T20:22:02.936Z,2.50
2018-09-15T20:27:06.367Z,1.90
2018-09-15T20:32:09.784Z,2.23
2018-09-15T20:37:13.133Z,1.90
2018-09-15T20:42:16.444Z,2.07
2018-09-15T20:47:19.965Z,2.30
2018-09-15T20:52:23.324Z,1.77
2018-09-15T20:57:26.426Z,2.60
2018-09-15T21:02:29.716Z,2.60
2018-09-15T21:07:33.052Z,2.37
2018-09-15T21:12:36.544Z,2.83
2018-09-15T21:17:39.866Z,2.22
2018-09-15T21:22:43.272Z,3.43
2018-09-15T21:27:46.696Z,3.87
2018-09-15T21:32:50.049Z,3.87
2018-09-15T21:37:53.412Z,3.50
2018-09-15T21:42:57.087Z,3.50
2018-09-15T21:48:00.451Z,3.07
2018-09-15T21:53:04.261Z,2.50
2018-09-15T21:58:21.853Z,2.60
2018-09-15T22:03:25.612Z,2.37
2018-09-15T22:08:29.206Z,2.90
2018-09-15T22:13:32.550Z,3.07
2018-09-15T22:18:36.486Z,2.60
2018-09-15T22:23:40.388Z,2.27
2018-09-15T22:28:44.345Z,3.30
2018-09-15T22:33:47.684Z,2.77
2018-09-15T22:38:51.101Z,2.87
2018-09-15T22:43:54.440Z,2.67
2018-09-15T22:48:57.885Z,2.67
2018-09-15T22:54:01.228Z,2.50
2018-09-15T22:59:04.697Z,3.47
2018-09-15T23:04:09.936Z,2.87
2018-09-15T23:09:13.400Z,3.10
2018-09-15T23:14:17.055Z,2.77
2018-09-15T23:19:21.477Z,2.53
2018-09-15T23:24:25.158Z,3.20
2018-09-15T23:29:28.565Z,3.33
2018-09-15T23:34:31.925Z,3.33
2018-09-15T23:39:35.292Z,3.33
2018-09-15T23:44:38.338Z,3.47
2018-09-15T23:49:41.728Z,3.40
2018-09-15T23:54:45.014Z,2.57
2018-09-15T23:59:48.344Z,2.63
